Terminal Aerodrome Forecast
Issued by NWS Austin/San Antonio, TX

Home | Current Version | Previous Version | Text Only | Print | Product List | Glossary On
Versions: 1 2 3 4 5 6 7 8 9 10 11 12 13 14 15
386
FTUS44 KEWX 250145 AAB
TAFDRT
TAF AMD
KDRT 250145Z 2502/2524 14010KT P6SM OVC150
      TEMPO 2502/2505 VRB15G25KT 1SM +TSRA OVC020CB
     FM250600 11005KT P6SM BKN020 OVC100 PROB30 2511/2515 -TSRA
      BKN040CB
     FM251600 13010KT P6SM BKN040 PROB30 2516/2522 -TSRA BKN040CB=

USA.gov is the U.S. government's official web portal to all federal, state and local government web resources and services.